Allise P — A8JE7 — position and weather

sailwx.info

Track history (hours):
 
Tides and Currents Weather Stations Pressure Air Temp Water Temp Dewpoint Dewpoint Depression Visibility Wind Speed Wind Dir Waves Ship Positions

Allise P

Last reported at 2018-Jan-12 03:47 UTC. Time now 2018-Jan-22 04:29 UTC.
Position S 37°48' E 149°48'.
Warning: this ship's position is 10 days out of date.

Length 294 m; draft 11.2 m.

Type: Cargo ship. MMSI: 636091079.

Date/timePositionNaut miles runAvg speedWind from/ knotsBaromVisibWave heightAir tempDewpointWater temp
2018-Jan-12 03:47S 37°48' E 149°48'414.9
2018-Jan-12 03:31S 37°51' E 149°44'915.2
2018-Jan-12 02:55S 37°56' E 149°35'615.2
2018-Jan-12 02:30S 38°01' E 149°29'815.6
2018-Jan-12 01:59S 38°06' E 149°21'715.8
2018-Jan-12 01:30S 38°10' E 149°13'815.7
2018-Jan-12 00:59S 38°15' E 149°05'815.7
2018-Jan-12 00:30S 38°20' E 148°58'815.9
2018-Jan-12 00:00S 38°25' E 148°50'816.1
2018-Jan-11 23:30S 38°30' E 148°42'816.4
2018-Jan-11 23:01S 38°35' E 148°34'816.0
2018-Jan-11 22:31S 38°40' E 148°26'816.2
2018-Jan-11 22:00S 38°46' E 148°18'816.5
2018-Jan-11 21:30S 38°49' E 148°08'816.5
2018-Jan-11 21:00S 38°52' E 147°58'816.6
2018-Jan-11 20:30S 38°54' E 147°48'917.1
2018-Jan-11 20:00S 38°57' E 147°38'917.3
2018-Jan-11 19:31S 39°00' E 147°28'917.4
2018-Jan-11 19:01S 39°03' E 147°17'917.4
2018-Jan-11 18:31S 39°06' E 147°07'917.6
2018-Jan-11 18:00S 39°09' E 146°56'917.8
2018-Jan-11 17:30S 39°13' E 146°45'918.2
2018-Jan-11 17:00S 39°16' E 146°34'918.0
2018-Jan-11 16:31S 39°16' E 146°23'917.5
2018-Jan-11 16:00S 39°14' E 146°11'918.4
2018-Jan-11 15:31S 39°09' E 146°01'918.6
2018-Jan-11 15:00S 39°05' E 145°51'918.2
2018-Jan-11 14:30S 38°59' E 145°42'918.3
2018-Jan-11 14:00S 38°54' E 145°32'918.1
2018-Jan-11 13:30S 38°49' E 145°23'918.0
2018-Jan-11 13:00S 38°43' E 145°13'918.2
2018-Jan-11 12:29S 38°38' E 145°03'918.2
2018-Jan-11 12:00S 38°33' E 144°54'918.1
2018-Jan-11 11:30S 38°28' E 144°44'1212.1
2018-Jan-11 10:33S 38°17' E 144°39'218.0
2018-Jan-11 10:28S 38°18' E 144°41'1112.8
2018-Jan-11 09:37S 38°16' E 144°55'319.5
2018-Jan-11 09:28S 38°13' E 144°55'919.5
2018-Jan-11 09:01S 38°04' E 144°55'917.5
2018-Jan-11 08:29S 37°55' E 144°56'4 7.9
2018-Jan-11 08:00S 37°51' E 144°55'0 0.0
2018-Jan-11 07:30S 37°51' E 144°55'0 0.0
2018-Jan-11 07:00S 37°51' E 144°55'0 0.0
2018-Jan-11 06:30S 37°51' E 144°55'0 0.0
2018-Jan-11 05:54S 37°51' E 144°55'0 0.0
2018-Jan-11 02:51S 37°51' E 144°55'0 0.0
2018-Jan-10 20:30S 37°51' E 144°55'0 0.0
2018-Jan-10 18:03S 37°51' E 144°55'0 0.0
2018-Jan-10 17:18S 37°51' E 144°55'0 0.0
2018-Jan-10 16:57S 37°51' E 144°55'0 0.0
2018-Jan-10 16:27S 37°51' E 144°55'0 0.0
2018-Jan-10 16:00S 37°51' E 144°55'0 0.0
2018-Jan-10 15:30S 37°51' E 144°55'0 0.0
2018-Jan-10 15:00S 37°51' E 144°55'0 0.0
2018-Jan-10 14:30S 37°51' E 144°55'0 0.0
2018-Jan-10 14:00S 37°51' E 144°55'0 0.0
2018-Jan-10 13:30S 37°51' E 144°55'0 0.0
2018-Jan-10 12:51S 37°51' E 144°55'0 0.0
2018-Jan-10 12:15S 37°51' E 144°55'0 0.0
2018-Jan-10 12:00S 37°51' E 144°55'0 0.0
2018-Jan-10 09:51S 37°51' E 144°55'0 0.0
2018-Jan-10 09:15S 37°51' E 144°55'0 0.0
2018-Jan-10 07:54S 37°51' E 144°55'0 0.0
2018-Jan-10 06:57S 37°51' E 144°55'0 0.0
2018-Jan-10 06:27S 37°51' E 144°55'0 0.0
2018-Jan-10 05:54S 37°51' E 144°55'0 0.0
2018-Jan-09 18:49S 37°51' E 144°55'0 0.7
2018-Jan-09 18:29S 37°51' E 144°55'6 7.3
2018-Jan-09 17:42S 37°57' E 144°56'414.8
2018-Jan-09 17:27S 38°00' E 144°55'19110.4
2018-Jan-08 23:10S 38°17' E 148°57'315.5
2018-Jan-08 22:59S 38°15' E 148°60'25518.0
2018-Jan-08 08:49S 34°34' E 151°38'517.1
2018-Jan-08 08:30S 34°29' E 151°40'817.0
2018-Jan-08 08:01S 34°21' E 151°44'917.0
2018-Jan-08 07:31S 34°14' E 151°48'816.7
2018-Jan-08 07:01S 34°06' E 151°52'816.4
2018-Jan-08 06:31S 33°58' E 151°56'917.0
2018-Jan-08 06:00S 33°50' E 151°59'917.3
2018-Jan-08 05:31S 33°42' E 152°03'817.0
2018-Jan-08 05:01S 33°34' E 152°07'1020.0
2018-Jan-08 04:31S 33°25' E 152°12'918.0
2018-Jan-08 04:00S 33°17' E 152°16'918.0
2018-Jan-08 03:31S 33°09' E 152°20'917.6
2018-Jan-08 03:00S 33°00' E 152°23'917.2
2018-Jan-08 02:30S 32°52' E 152°27'816.7
2018-Jan-08 02:01S 32°45' E 152°31'816.5
2018-Jan-08 01:30S 32°37' E 152°35'19917.4
2018-Jan-07 14:04S 29°25' E 153°38'217.6
2018-Jan-07 13:59S 29°24' E 153°39'917.5
2018-Jan-07 13:29S 29°15' E 153°41'1217.5
2018-Jan-07 12:48S 29°04' E 153°43'2417.3
2018-Jan-07 11:24S 28°40' E 153°49'616.8
2018-Jan-07 11:00S 28°33' E 153°49'816.7
2018-Jan-07 10:30S 28°25' E 153°50'917.0
2018-Jan-07 10:00S 28°16' E 153°50'917.4
2018-Jan-07 09:30S 28°08' E 153°51'917.2
2018-Jan-07 09:00S 27°59' E 153°52'1016.9
2018-Jan-07 08:26S 27°50' E 153°52'1116.7
2018-Jan-07 07:49S 27°39' E 153°52'517.2
2018-Jan-07 07:30S 27°34' E 153°52'  
Track history (hours):
 
Tides and Currents Weather Stations Pressure Air Temp Water Temp Dewpoint Dewpoint Depression Visibility Wind Speed Wind Dir Waves Ship Positions

Allise P

Last reported at 2018-Jan-12 03:47 UTC. Time now 2018-Jan-22 04:29 UTC.
Position S 37°48' E 149°48'.
Warning: this ship's position is 10 days out of date.

Length 294 m; draft 11.2 m.

Type: Cargo ship. MMSI: 636091079.

Date/timePositionNaut miles runAvg speedWind from/ knotsBaromVisibWave heightAir tempDewpointWater temp
2018-Jan-12 03:47S 37°48' E 149°48'414.9
2018-Jan-12 03:31S 37°51' E 149°44'915.2
2018-Jan-12 02:55S 37°56' E 149°35'615.2
2018-Jan-12 02:30S 38°01' E 149°29'815.6
2018-Jan-12 01:59S 38°06' E 149°21'715.8
2018-Jan-12 01:30S 38°10' E 149°13'815.7
2018-Jan-12 00:59S 38°15' E 149°05'815.7
2018-Jan-12 00:30S 38°20' E 148°58'815.9
2018-Jan-12 00:00S 38°25' E 148°50'816.1
2018-Jan-11 23:30S 38°30' E 148°42'816.4
2018-Jan-11 23:01S 38°35' E 148°34'816.0
2018-Jan-11 22:31S 38°40' E 148°26'816.2
2018-Jan-11 22:00S 38°46' E 148°18'816.5
2018-Jan-11 21:30S 38°49' E 148°08'816.5
2018-Jan-11 21:00S 38°52' E 147°58'816.6
2018-Jan-11 20:30S 38°54' E 147°48'917.1
2018-Jan-11 20:00S 38°57' E 147°38'917.3
2018-Jan-11 19:31S 39°00' E 147°28'917.4
2018-Jan-11 19:01S 39°03' E 147°17'917.4
2018-Jan-11 18:31S 39°06' E 147°07'917.6
2018-Jan-11 18:00S 39°09' E 146°56'917.8
2018-Jan-11 17:30S 39°13' E 146°45'918.2
2018-Jan-11 17:00S 39°16' E 146°34'918.0
2018-Jan-11 16:31S 39°16' E 146°23'917.5
2018-Jan-11 16:00S 39°14' E 146°11'918.4
2018-Jan-11 15:31S 39°09' E 146°01'918.6
2018-Jan-11 15:00S 39°05' E 145°51'918.2
2018-Jan-11 14:30S 38°59' E 145°42'918.3
2018-Jan-11 14:00S 38°54' E 145°32'918.1
2018-Jan-11 13:30S 38°49' E 145°23'918.0
2018-Jan-11 13:00S 38°43' E 145°13'918.2
2018-Jan-11 12:29S 38°38' E 145°03'918.2
2018-Jan-11 12:00S 38°33' E 144°54'918.1
2018-Jan-11 11:30S 38°28' E 144°44'1212.1
2018-Jan-11 10:33S 38°17' E 144°39'218.0
2018-Jan-11 10:28S 38°18' E 144°41'1112.8
2018-Jan-11 09:37S 38°16' E 144°55'319.5
2018-Jan-11 09:28S 38°13' E 144°55'919.5
2018-Jan-11 09:01S 38°04' E 144°55'917.5
2018-Jan-11 08:29S 37°55' E 144°56'4 7.9
2018-Jan-11 08:00S 37°51' E 144°55'0 0.0
2018-Jan-11 07:30S 37°51' E 144°55'0 0.0
2018-Jan-11 07:00S 37°51' E 144°55'0 0.0
2018-Jan-11 06:30S 37°51' E 144°55'0 0.0
2018-Jan-11 05:54S 37°51' E 144°55'0 0.0
2018-Jan-11 02:51S 37°51' E 144°55'0 0.0
2018-Jan-10 20:30S 37°51' E 144°55'0 0.0
2018-Jan-10 18:03S 37°51' E 144°55'0 0.0
2018-Jan-10 17:18S 37°51' E 144°55'0 0.0
2018-Jan-10 16:57S 37°51' E 144°55'0 0.0
2018-Jan-10 16:27S 37°51' E 144°55'0 0.0
2018-Jan-10 16:00S 37°51' E 144°55'0 0.0
2018-Jan-10 15:30S 37°51' E 144°55'0 0.0
2018-Jan-10 15:00S 37°51' E 144°55'0 0.0
2018-Jan-10 14:30S 37°51' E 144°55'0 0.0
2018-Jan-10 14:00S 37°51' E 144°55'0 0.0
2018-Jan-10 13:30S 37°51' E 144°55'0 0.0
2018-Jan-10 12:51S 37°51' E 144°55'0 0.0
2018-Jan-10 12:15S 37°51' E 144°55'0 0.0
2018-Jan-10 12:00S 37°51' E 144°55'0 0.0
2018-Jan-10 09:51S 37°51' E 144°55'0 0.0
2018-Jan-10 09:15S 37°51' E 144°55'0 0.0
2018-Jan-10 07:54S 37°51' E 144°55'0 0.0
2018-Jan-10 06:57S 37°51' E 144°55'0 0.0
2018-Jan-10 06:27S 37°51' E 144°55'0 0.0
2018-Jan-10 05:54S 37°51' E 144°55'0 0.0
2018-Jan-09 18:49S 37°51' E 144°55'0 0.7
2018-Jan-09 18:29S 37°51' E 144°55'6 7.3
2018-Jan-09 17:42S 37°57' E 144°56'414.8
2018-Jan-09 17:27S 38°00' E 144°55'19110.4
2018-Jan-08 23:10S 38°17' E 148°57'315.5
2018-Jan-08 22:59S 38°15' E 148°60'25518.0
2018-Jan-08 08:49S 34°34' E 151°38'517.1
2018-Jan-08 08:30S 34°29' E 151°40'817.0
2018-Jan-08 08:01S 34°21' E 151°44'917.0
2018-Jan-08 07:31S 34°14' E 151°48'816.7
2018-Jan-08 07:01S 34°06' E 151°52'816.4
2018-Jan-08 06:31S 33°58' E 151°56'917.0
2018-Jan-08 06:00S 33°50' E 151°59'917.3
2018-Jan-08 05:31S 33°42' E 152°03'817.0
2018-Jan-08 05:01S 33°34' E 152°07'1020.0
2018-Jan-08 04:31S 33°25' E 152°12'918.0
2018-Jan-08 04:00S 33°17' E 152°16'918.0
2018-Jan-08 03:31S 33°09' E 152°20'917.6
2018-Jan-08 03:00S 33°00' E 152°23'917.2
2018-Jan-08 02:30S 32°52' E 152°27'816.7
2018-Jan-08 02:01S 32°45' E 152°31'816.5
2018-Jan-08 01:30S 32°37' E 152°35'19917.4
2018-Jan-07 14:04S 29°25' E 153°38'217.6
2018-Jan-07 13:59S 29°24' E 153°39'917.5
2018-Jan-07 13:29S 29°15' E 153°41'1217.5
2018-Jan-07 12:48S 29°04' E 153°43'2417.3
2018-Jan-07 11:24S 28°40' E 153°49'616.8
2018-Jan-07 11:00S 28°33' E 153°49'816.7
2018-Jan-07 10:30S 28°25' E 153°50'917.0
2018-Jan-07 10:00S 28°16' E 153°50'917.4
2018-Jan-07 09:30S 28°08' E 153°51'917.2
2018-Jan-07 09:00S 27°59' E 153°52'1016.9
2018-Jan-07 08:26S 27°50' E 153°52'1116.7
2018-Jan-07 07:49S 27°39' E 153°52'517.2
2018-Jan-07 07:30S 27°34' E 153°52'  

Dump ship's entire track history